Time;durP1;ratioP1;P1;durP2;ratioP2;P2;SDS_P1;SDS_P2;PMS_P1;PMS_P2;Temp;Humidity;BMP_temperature;BMP_pressure;BME280_temperature;BME280_humidity;BME280_pressure;Samples;Min_cycle;Max_cycle;Signal;HPM_P1;HPM_P2
2021/09/26 00:00:24;;;;;;;5.65;4.85;;;;;;;;;;4695238;30;20214;-86
2021/09/26 00:02:52;;;;;;;6.05;4.70;;;;;;;;;;4700431;30;20219;-85
2021/09/26 00:05:19;;;;;;;6.85;4.78;;;;;;;;;;4701236;30;20210;-85
2021/09/26 00:07:47;;;;;;;4.72;4.05;;;;;;;;;;4698120;30;20232;-85
2021/09/26 00:10:18;;;;;;;14.43;5.53;;;;;;;;;;4696996;30;20216;-86
2021/09/26 00:12:46;;;;;;;3.30;3.00;;;;;;;;;;4700456;30;20214;-86
2021/09/26 00:15:24;;;;;;;4.28;3.88;;;;;;;;;;4697424;30;20214;-86
2021/09/26 00:17:52;;;;;;;3.60;3.30;;;;;;;;;;4684614;30;20238;-85
2021/09/26 00:20:21;;;;;;;5.20;3.83;;;;;;;;;;4683618;30;20219;-86
2021/09/26 00:22:50;;;;;;;3.45;3.10;;;;;;;;;;4683738;30;20211;-87
2021/09/26 00:25:19;;;;;;;3.00;2.70;;;;;;;;;;4700449;30;20217;-86
2021/09/26 00:27:47;;;;;;;2.58;2.38;;;;;;;;;;4688445;30;20231;-86
2021/09/26 00:30:16;;;;;;;2.70;2.50;;;;;;;;;;4682954;30;20219;-85
2021/09/26 00:32:46;;;;;;;2.95;2.72;;;;;;;;;;4683011;30;20218;-87
2021/09/26 00:35:16;;;;;;;2.25;2.13;;;;;;;;;;4700126;30;20195;-86
2021/09/26 00:37:45;;;;;;;2.38;2.17;;;;;;;;;;4699345;30;20710;-86
2021/09/26 00:40:14;;;;;;;1.92;1.80;;;;;;;;;;4699965;30;20214;-86
2021/09/26 00:42:41;;;;;;;3.00;2.70;;;;;;;;;;4683210;30;20593;-85
2021/09/26 00:45:10;;;;;;;2.78;2.25;;;;;;;;;;4683374;30;20234;-86
2021/09/26 00:47:38;;;;;;;11.88;4.05;;;;;;;;;;4697132;30;20246;-86
2021/09/26 00:50:10;;;;;;;2.72;2.53;;;;;;;;;;4700081;30;20653;-86
2021/09/26 00:52:41;;;;;;;2.40;2.20;;;;;;;;;;4699727;30;20281;-86
2021/09/26 00:55:09;;;;;;;2.20;2.05;;;;;;;;;;4682978;30;20202;-87
2021/09/26 00:57:37;;;;;;;2.53;2.33;;;;;;;;;;4682468;30;20715;-86
2021/09/26 01:00:06;;;;;;;2.47;2.28;;;;;;;;;;4697600;30;20668;-86
2021/09/26 01:02:34;;;;;;;3.10;2.33;;;;;;;;;;4700233;30;20199;-86
2021/09/26 01:05:04;;;;;;;2.10;2.00;;;;;;;;;;4699749;30;20206;-85
2021/09/26 01:07:36;;;;;;;2.15;2.05;;;;;;;;;;4694496;30;20726;-86
2021/09/26 01:10:09;;;;;;;3.13;2.83;;;;;;;;;;4682709;30;20226;-85
2021/09/26 01:12:46;;;;;;;3.33;3.03;;;;;;;;;;4682797;30;20199;-86
2021/09/26 01:15:20;;;;;;;2.67;2.47;;;;;;;;;;4682651;30;20242;-85
2021/09/26 01:17:52;;;;;;;3.13;2.78;;;;;;;;;;4682512;30;20243;-86
2021/09/26 01:20:41;;;;;;;2.90;2.63;;;;;;;;;;4682244;30;20343;-86
2021/09/26 01:23:56;;;;;;;2.92;2.67;;;;;;;;;;4684393;30;20206;-86
2021/09/26 01:26:42;;;;;;;3.67;3.35;;;;;;;;;;4682257;30;20675;-86
2021/09/26 01:29:36;;;;;;;3.10;2.75;;;;;;;;;;4679457;30;20749;-86
2021/09/26 01:32:09;;;;;;;3.83;3.53;;;;;;;;;;4675961;30;20226;-86
2021/09/26 01:34:41;;;;;;;3.45;3.15;;;;;;;;;;4697911;30;20206;-86
2021/09/26 01:37:13;;;;;;;3.08;2.88;;;;;;;;;;4702866;30;20218;-86
2021/09/26 01:39:45;;;;;;;3.20;2.90;;;;;;;;;;4702931;30;20206;-86
2021/09/26 01:42:18;;;;;;;3.30;3.00;;;;;;;;;;4703262;30;20240;-85
2021/09/26 01:44:53;;;;;;;2.55;2.35;;;;;;;;;;4703310;30;20564;-85
2021/09/26 01:47:27;;;;;;;1.95;1.85;;;;;;;;;;4697873;30;20238;-85
2021/09/26 01:49:59;;;;;;;2.28;2.08;;;;;;;;;;4685799;30;20186;-86
2021/09/26 01:52:30;;;;;;;1.88;1.77;;;;;;;;;;4685766;30;20562;-86
2021/09/26 01:54:59;;;;;;;1.95;1.80;;;;;;;;;;4701605;30;20202;-85
2021/09/26 01:57:28;;;;;;;2.58;2.38;;;;;;;;;;4702525;30;20222;-85
2021/09/26 01:59:59;;;;;;;2.30;2.10;;;;;;;;;;4702789;30;20230;-86
2021/09/26 02:02:29;;;;;;;2.53;2.33;;;;;;;;;;4702863;30;20233;-86
2021/09/26 02:04:59;;;;;;;1.90;1.80;;;;;;;;;;4702683;30;20202;-86
2021/09/26 02:07:28;;;;;;;2.10;2.00;;;;;;;;;;4702668;30;20213;-86
2021/09/26 02:09:55;;;;;;;2.10;1.92;;;;;;;;;;4702710;30;20195;-86
2021/09/26 02:12:24;;;;;;;1.65;1.55;;;;;;;;;;4702547;30;20572;-86
2021/09/26 02:14:51;;;;;;;2.00;1.90;;;;;;;;;;4698167;30;20225;-85
2021/09/26 02:17:19;;;;;;;2.50;2.30;;;;;;;;;;4702371;30;20235;-85
2021/09/26 02:19:49;;;;;;;3.00;2.72;;;;;;;;;;4702747;30;20198;-85
2021/09/26 02:22:17;;;;;;;3.13;2.83;;;;;;;;;;4702565;30;20580;-85
2021/09/26 02:24:46;;;;;;;2.67;2.47;;;;;;;;;;4701552;30;20210;-86
2021/09/26 02:27:13;;;;;;;2.47;2.28;;;;;;;;;;4701671;30;20205;-85
2021/09/26 02:29:41;;;;;;;3.17;2.88;;;;;;;;;;4702487;30;20578;-85
2021/09/26 02:32:10;;;;;;;2.35;2.15;;;;;;;;;;4702438;30;20202;-85
2021/09/26 02:34:37;;;;;;;2.50;2.30;;;;;;;;;;4702045;30;20675;-85
2021/09/26 02:37:06;;;;;;;2.40;2.20;;;;;;;;;;4702358;30;20218;-85
2021/09/26 02:39:34;;;;;;;3.28;3.08;;;;;;;;;;4702297;30;20242;-86
2021/09/26 02:42:08;;;;;;;3.40;3.10;;;;;;;;;;4701071;30;20221;-86
2021/09/26 02:44:41;;;;;;;3.42;3.13;;;;;;;;;;4697539;30;20206;-86
2021/09/26 02:47:13;;;;;;;2.85;2.65;;;;;;;;;;4702014;30;20242;-86
2021/09/26 02:49:41;;;;;;;2.83;2.63;;;;;;;;;;4702306;30;20203;-86
2021/09/26 02:52:12;;;;;;;3.83;3.53;;;;;;;;;;4700403;30;20686;-85
2021/09/26 02:54:42;;;;;;;3.33;3.05;;;;;;;;;;4697813;30;20569;-86
2021/09/26 02:57:11;;;;;;;2.22;2.05;;;;;;;;;;4701779;30;20219;-86
2021/09/26 02:59:40;;;;;;;2.55;2.35;;;;;;;;;;4701874;30;20580;-86
2021/09/26 03:02:10;;;;;;;2.33;2.13;;;;;;;;;;4701618;30;20218;-86
2021/09/26 03:04:43;;;;;;;3.17;2.97;;;;;;;;;;4701771;30;20671;-86
2021/09/26 03:07:13;;;;;;;4.75;2.83;;;;;;;;;;4701623;30;20676;-87
2021/09/26 03:09:41;;;;;;;3.20;2.97;;;;;;;;;;4701754;30;20577;-86
2021/09/26 03:12:14;;;;;;;2.97;2.78;;;;;;;;;;4701641;30;20210;-86
2021/09/26 03:14:41;;;;;;;3.17;2.90;;;;;;;;;;4701915;30;20199;-86
2021/09/26 03:17:10;;;;;;;2.92;2.72;;;;;;;;;;4701312;30;20224;-86
2021/09/26 03:19:38;;;;;;;2.50;2.35;;;;;;;;;;4701656;30;20293;-86
2021/09/26 03:22:06;;;;;;;2.35;2.22;;;;;;;;;;4687432;30;20693;-85
2021/09/26 03:24:36;;;;;;;2.95;2.75;;;;;;;;;;4697501;30;20210;-85
2021/09/26 03:27:09;;;;;;;3.13;2.92;;;;;;;;;;4701203;30;20674;-85
2021/09/26 03:29:36;;;;;;;2.72;2.40;;;;;;;;;;4701333;30;20249;-85
2021/09/26 03:32:05;;;;;;;2.63;2.40;;;;;;;;;;4701419;30;20211;-86
2021/09/26 03:34:32;;;;;;;2.47;2.28;;;;;;;;;;4700917;30;20214;-86
2021/09/26 03:37:00;;;;;;;2.35;2.15;;;;;;;;;;4701137;30;20198;-86
2021/09/26 03:39:28;;;;;;;2.45;2.25;;;;;;;;;;4701210;30;20613;-87
2021/09/26 03:41:57;;;;;;;2.72;2.53;;;;;;;;;;4701163;30;20202;-86
2021/09/26 03:44:25;;;;;;;3.60;3.28;;;;;;;;;;4701039;30;20225;-87
2021/09/26 03:46:52;;;;;;;2.75;2.55;;;;;;;;;;4700845;30;20242;-87
2021/09/26 03:49:20;;;;;;;2.88;2.67;;;;;;;;;;4700856;30;20231;-86
2021/09/26 03:51:50;;;;;;;3.70;3.35;;;;;;;;;;4700729;30;20191;-86
2021/09/26 03:54:18;;;;;;;3.53;3.22;;;;;;;;;;4700694;30;20206;-86
2021/09/26 03:56:48;;;;;;;3.55;3.22;;;;;;;;;;4698772;30;20195;-86
2021/09/26 03:59:19;;;;;;;2.75;2.55;;;;;;;;;;4683808;30;20252;-86
2021/09/26 04:01:47;;;;;;;2.00;1.80;;;;;;;;;;4683465;30;20648;-86
2021/09/26 04:04:15;;;;;;;2.88;2.58;;;;;;;;;;4694434;30;20206;-86
2021/09/26 04:06:42;;;;;;;2.60;2.40;;;;;;;;;;4700828;30;20198;-86
2021/09/26 04:09:10;;;;;;;3.00;2.80;;;;;;;;;;4700965;30;20241;-86
2021/09/26 04:11:38;;;;;;;2.38;2.17;;;;;;;;;;4700585;30;20199;-86
2021/09/26 04:14:06;;;;;;;3.05;2.78;;;;;;;;;;4690987;30;20687;-86
2021/09/26 04:16:35;;;;;;;2.13;2.03;;;;;;;;;;4683528;30;20540;-86
2021/09/26 04:19:02;;;;;;;2.80;2.60;;;;;;;;;;4700355;30;20269;-86
2021/09/26 04:21:31;;;;;;;1.80;1.70;;;;;;;;;;4700396;30;20702;-86
2021/09/26 04:23:58;;;;;;;2.17;2.08;;;;;;;;;;4700289;30;20205;-86
2021/09/26 04:26:26;;;;;;;2.47;2.28;;;;;;;;;;4700522;30;20581;-86
2021/09/26 04:28:53;;;;;;;2.30;2.10;;;;;;;;;;4700173;30;20237;-86
2021/09/26 04:31:21;;;;;;;2.30;2.20;;;;;;;;;;4700201;30;20205;-87
2021/09/26 04:33:50;;;;;;;1.73;1.63;;;;;;;;;;4692567;30;20210;-86
2021/09/26 04:36:18;;;;;;;2.50;2.38;;;;;;;;;;4683664;30;20215;-85
2021/09/26 04:38:45;;;;;;;2.50;2.35;;;;;;;;;;4683123;30;20243;-85
2021/09/26 04:41:13;;;;;;;1.88;1.77;;;;;;;;;;4682907;30;20246;-87
2021/09/26 04:43:41;;;;;;;2.65;2.45;;;;;;;;;;4689436;30;20207;-86
2021/09/26 04:46:09;;;;;;;2.10;2.00;;;;;;;;;;4699683;30;20237;-86
2021/09/26 04:48:36;;;;;;;2.15;1.95;;;;;;;;;;4687033;30;20238;-87
2021/09/26 04:51:06;;;;;;;2.40;2.20;;;;;;;;;;4685329;30;20214;-87
2021/09/26 04:53:35;;;;;;;2.33;2.13;;;;;;;;;;4699881;30;20955;-87
2021/09/26 04:56:02;;;;;;;1.83;1.70;;;;;;;;;;4700054;30;20207;-86
2021/09/26 04:58:29;;;;;;;1.77;1.67;;;;;;;;;;4699949;30;20242;-86
2021/09/26 05:00:57;;;;;;;2.20;2.00;;;;;;;;;;4700040;30;20229;-86
2021/09/26 05:03:24;;;;;;;2.05;1.92;;;;;;;;;;4700084;30;20194;-87
2021/09/26 05:05:53;;;;;;;2.00;1.90;;;;;;;;;;4700218;30;20199;-86
2021/09/26 05:08:23;;;;;;;2.15;2.05;;;;;;;;;;4700227;30;20242;-85
2021/09/26 05:10:50;;;;;;;2.28;2.00;;;;;;;;;;4700033;30;20218;-86
2021/09/26 05:13:18;;;;;;;2.30;1.80;;;;;;;;;;4695999;30;20206;-86
2021/09/26 05:15:45;;;;;;;2.30;2.17;;;;;;;;;;4682857;30;20199;-86
2021/09/26 05:18:13;;;;;;;2.08;1.95;;;;;;;;;;4690083;30;20245;-87
2021/09/26 05:20:41;;;;;;;2.45;2.25;;;;;;;;;;4699841;30;20207;-87
2021/09/26 05:23:08;;;;;;;2.33;2.20;;;;;;;;;;4699349;30;20211;-87
2021/09/26 05:25:37;;;;;;;2.20;2.10;;;;;;;;;;4699867;30;20210;-86
2021/09/26 05:28:05;;;;;;;2.60;2.38;;;;;;;;;;4700420;30;20234;-86
2021/09/26 05:30:33;;;;;;;1.75;1.60;;;;;;;;;;4700173;30;20221;-86
2021/09/26 05:33:01;;;;;;;2.08;1.98;;;;;;;;;;4700932;30;20209;-85
2021/09/26 05:35:29;;;;;;;1.70;1.60;;;;;;;;;;4700954;30;20198;-85
2021/09/26 05:37:58;;;;;;;2.40;2.20;;;;;;;;;;4700316;30;20261;-85
2021/09/26 05:40:27;;;;;;;2.20;2.10;;;;;;;;;;4700256;30;20230;-85
2021/09/26 05:42:55;;;;;;;2.05;1.95;;;;;;;;;;4699518;30;20687;-86
2021/09/26 05:45:23;;;;;;;2.30;2.10;;;;;;;;;;4699157;30;20199;-86
2021/09/26 05:47:50;;;;;;;2.17;2.08;;;;;;;;;;4696261;30;20638;-85
2021/09/26 05:50:18;;;;;;;1.83;1.73;;;;;;;;;;4700569;30;20247;-86
2021/09/26 05:52:47;;;;;;;2.42;2.20;;;;;;;;;;4700082;30;20202;-86
2021/09/26 05:55:16;;;;;;;2.30;2.10;;;;;;;;;;4700185;30;20203;-85
2021/09/26 05:57:43;;;;;;;2.05;1.95;;;;;;;;;;4699549;30;20281;-86
2021/09/26 06:00:13;;;;;;;2.08;1.88;;;;;;;;;;4699767;30;20734;-85
2021/09/26 06:02:41;;;;;;;1.83;1.73;;;;;;;;;;4700161;30;20206;-86
2021/09/26 06:05:11;;;;;;;2.05;1.95;;;;;;;;;;4700576;30;20215;-86
2021/09/26 06:07:39;;;;;;;1.90;1.80;;;;;;;;;;4700461;30;20231;-85
2021/09/26 06:10:08;;;;;;;2.15;2.05;;;;;;;;;;4699803;30;20214;-85
2021/09/26 06:12:35;;;;;;;1.95;1.85;;;;;;;;;;4691952;30;20208;-84
2021/09/26 06:15:04;;;;;;;2.58;2.38;;;;;;;;;;4699037;30;20211;-85
2021/09/26 06:17:33;;;;;;;2.30;2.10;;;;;;;;;;4699805;30;20231;-85
2021/09/26 06:20:01;;;;;;;2.47;2.28;;;;;;;;;;4698233;30;20251;-85
2021/09/26 06:22:29;;;;;;;3.55;2.47;;;;;;;;;;4686254;30;20199;-85
2021/09/26 06:24:58;;;;;;;2.30;2.10;;;;;;;;;;4686314;30;20800;-85
2021/09/26 06:27:26;;;;;;;2.95;2.60;;;;;;;;;;4686505;30;20239;-85
2021/09/26 06:29:53;;;;;;;2.53;2.33;;;;;;;;;;4686256;30;20660;-85
2021/09/26 06:32:22;;;;;;;2.78;2.58;;;;;;;;;;4686461;30;20671;-85
2021/09/26 06:34:51;;;;;;;2.13;2.03;;;;;;;;;;4699655;30;20394;-85
2021/09/26 06:37:18;;;;;;;2.25;2.05;;;;;;;;;;4685906;30;20203;-85
2021/09/26 06:39:46;;;;;;;2.38;2.20;;;;;;;;;;4685607;30;20219;-84
2021/09/26 06:42:13;;;;;;;3.08;2.78;;;;;;;;;;4685985;30;20687;-86
2021/09/26 06:44:41;;;;;;;2.38;2.17;;;;;;;;;;4699074;30;20627;-85
2021/09/26 06:47:08;;;;;;;2.22;2.13;;;;;;;;;;4701808;30;20616;-86
2021/09/26 06:49:36;;;;;;;3.03;2.83;;;;;;;;;;4703259;30;20207;-86
2021/09/26 06:52:05;;;;;;;2.42;2.22;;;;;;;;;;4703501;30;20210;-86
2021/09/26 06:54:34;;;;;;;2.40;2.25;;;;;;;;;;4702853;30;20211;-86
2021/09/26 06:57:01;;;;;;;2.22;2.00;;;;;;;;;;4702108;30;20210;-85
2021/09/26 06:59:29;;;;;;;2.55;2.35;;;;;;;;;;4685183;30;20247;-85
2021/09/26 07:01:56;;;;;;;3.15;2.13;;;;;;;;;;4685579;30;20207;-85
2021/09/26 07:04:24;;;;;;;2.92;2.20;;;;;;;;;;4697078;30;20217;-85
2021/09/26 07:06:52;;;;;;;2.80;2.15;;;;;;;;;;4702682;30;20280;-85
2021/09/26 07:09:21;;;;;;;2.67;2.47;;;;;;;;;;4702640;30;20243;-85
2021/09/26 07:11:48;;;;;;;2.13;2.03;;;;;;;;;;4701757;30;20218;-86
2021/09/26 07:14:16;;;;;;;2.50;2.30;;;;;;;;;;4701924;30;20203;-86
2021/09/26 07:16:43;;;;;;;2.47;2.28;;;;;;;;;;4702140;30;20662;-85
2021/09/26 07:19:12;;;;;;;2.65;2.45;;;;;;;;;;4701828;30;20246;-84
2021/09/26 07:21:40;;;;;;;2.60;2.30;;;;;;;;;;4702809;30;20211;-84
2021/09/26 07:24:07;;;;;;;2.22;2.03;;;;;;;;;;4692516;30;20219;-86
2021/09/26 07:26:36;;;;;;;1.77;1.67;;;;;;;;;;4689819;30;20233;-86
2021/09/26 07:29:04;;;;;;;4.22;2.97;;;;;;;;;;4701410;30;20235;-86
2021/09/26 07:31:31;;;;;;;2.60;2.40;;;;;;;;;;4701677;30;20225;-86
2021/09/26 07:33:59;;;;;;;6.65;4.07;;;;;;;;;;4700926;30;20214;-85
2021/09/26 07:36:26;;;;;;;2.60;2.40;;;;;;;;;;4700582;30;20590;-86
2021/09/26 07:38:53;;;;;;;1.90;1.80;;;;;;;;;;4700727;30;20615;-86
2021/09/26 07:41:21;;;;;;;2.30;2.10;;;;;;;;;;4701243;30;20222;-86
2021/09/26 07:43:50;;;;;;;2.92;2.72;;;;;;;;;;4700493;30;20208;-86
2021/09/26 07:46:18;;;;;;;3.40;3.15;;;;;;;;;;4685408;30;20728;-87
2021/09/26 07:48:45;;;;;;;3.10;2.88;;;;;;;;;;4686691;30;20222;-86
2021/09/26 07:51:13;;;;;;;2.88;2.67;;;;;;;;;;4700542;30;20205;-87
2021/09/26 07:53:40;;;;;;;3.22;3.03;;;;;;;;;;4700288;30;20604;-87
2021/09/26 07:56:08;;;;;;;3.47;3.17;;;;;;;;;;4700243;30;20203;-87
2021/09/26 07:58:37;;;;;;;3.10;2.80;;;;;;;;;;4700619;30;20317;-87
2021/09/26 08:01:06;;;;;;;3.50;3.20;;;;;;;;;;4700260;30;20230;-87
2021/09/26 08:03:33;;;;;;;3.28;3.05;;;;;;;;;;4700382;30;20203;-87
2021/09/26 08:06:02;;;;;;;2.95;2.75;;;;;;;;;;4700779;30;20200;-87
2021/09/26 08:08:29;;;;;;;3.05;2.85;;;;;;;;;;4700251;30;20249;-87
2021/09/26 08:10:57;;;;;;;3.20;3.00;;;;;;;;;;4700039;30;20912;-87
2021/09/26 08:13:24;;;;;;;3.67;3.38;;;;;;;;;;4700108;30;20592;-86
2021/09/26 08:15:53;;;;;;;3.20;3.00;;;;;;;;;;4700369;30;20195;-87
2021/09/26 08:18:22;;;;;;;3.80;3.50;;;;;;;;;;4699966;30;20889;-87
2021/09/26 08:20:49;;;;;;;3.00;2.80;;;;;;;;;;4700266;30;20237;-86
2021/09/26 08:23:17;;;;;;;2.20;2.10;;;;;;;;;;4699969;30;20207;-87
2021/09/26 08:25:44;;;;;;;3.15;2.70;;;;;;;;;;4700048;30;20224;-87
2021/09/26 08:28:12;;;;;;;3.67;2.97;;;;;;;;;;4700170;30;20266;-88
2021/09/26 08:30:41;;;;;;;2.78;2.58;;;;;;;;;;4700189;30;20202;-87
2021/09/26 08:33:09;;;;;;;4.10;3.80;;;;;;;;;;4692395;30;20210;-87
2021/09/26 08:35:38;;;;;;;3.95;3.17;;;;;;;;;;4700048;30;20195;-88
2021/09/26 08:38:05;;;;;;;3.55;3.25;;;;;;;;;;4700129;30;20245;-87
2021/09/26 08:40:33;;;;;;;2.67;2.47;;;;;;;;;;4697544;30;20234;-87
2021/09/26 08:43:01;;;;;;;3.40;2.90;;;;;;;;;;4683868;30;20230;-87
2021/09/26 08:45:30;;;;;;;2.92;2.72;;;;;;;;;;4699357;30;20198;-87
2021/09/26 08:48:00;;;;;;;3.88;3.58;;;;;;;;;;4699481;30;20232;-87
2021/09/26 08:50:29;;;;;;;2.58;2.38;;;;;;;;;;4699606;30;20202;-87
2021/09/26 08:52:58;;;;;;;2.67;2.47;;;;;;;;;;4699311;30;20249;-87
2021/09/26 08:55:26;;;;;;;2.63;2.42;;;;;;;;;;4699454;30;20648;-87
2021/09/26 08:57:53;;;;;;;3.30;3.00;;;;;;;;;;4699271;30;20322;-87
2021/09/26 09:00:21;;;;;;;4.30;3.38;;;;;;;;;;4699411;30;20655;-86
2021/09/26 09:02:48;;;;;;;3.33;3.03;;;;;;;;;;4699369;30;20213;-86
2021/09/26 09:05:31;;;;;;;3.08;2.88;;;;;;;;;;4698996;30;20222;-87
2021/09/26 09:08:09;;;;;;;3.20;3.00;;;;;;;;;;4699091;30;20710;-87
2021/09/26 09:10:46;;;;;;;3.58;3.28;;;;;;;;;;4699286;30;20201;-87
2021/09/26 09:13:16;;;;;;;3.80;3.50;;;;;;;;;;4698829;30;20202;-88
2021/09/26 09:15:53;;;;;;;4.75;3.13;;;;;;;;;;4699539;30;20210;-88
2021/09/26 09:18:20;;;;;;;3.38;3.10;;;;;;;;;;4699135;30;20237;-87
2021/09/26 09:20:48;;;;;;;3.63;3.33;;;;;;;;;;4699374;30;20223;-88
2021/09/26 09:23:19;;;;;;;3.03;2.83;;;;;;;;;;4692265;30;20207;-87
2021/09/26 09:25:49;;;;;;;3.03;2.83;;;;;;;;;;4699458;30;20568;-88
2021/09/26 09:28:19;;;;;;;2.63;2.42;;;;;;;;;;4699306;30;20235;-87
2021/09/26 09:30:49;;;;;;;2.45;2.35;;;;;;;;;;4699381;30;20210;-87
2021/09/26 09:33:19;;;;;;;2.60;2.45;;;;;;;;;;4692635;30;20210;-86
2021/09/26 09:35:49;;;;;;;3.45;3.15;;;;;;;;;;4699136;30;20201;-87
2021/09/26 09:38:20;;;;;;;3.97;3.42;;;;;;;;;;4699211;30;20245;-87
2021/09/26 09:40:50;;;;;;;3.20;3.00;;;;;;;;;;4699103;30;20209;-86
2021/09/26 09:43:17;;;;;;;3.53;3.33;;;;;;;;;;4692790;30;20210;-86
2021/09/26 09:45:49;;;;;;;3.80;3.50;;;;;;;;;;4698783;30;20319;-87
2021/09/26 09:48:18;;;;;;;3.55;3.35;;;;;;;;;;4698915;30;20232;-87
2021/09/26 09:50:56;;;;;;;3.33;3.13;;;;;;;;;;4685534;30;20679;-86
2021/09/26 09:53:36;;;;;;;3.50;3.22;;;;;;;;;;4686474;30;20198;-88
2021/09/26 09:56:12;;;;;;;3.72;3.42;;;;;;;;;;4701925;30;20203;-87
2021/09/26 09:58:43;;;;;;;4.13;3.83;;;;;;;;;;4702546;30;20240;-88
2021/09/26 10:01:13;;;;;;;3.72;3.42;;;;;;;;;;4702293;30;20217;-85
2021/09/26 10:03:47;;;;;;;3.55;3.25;;;;;;;;;;4696137;30;20211;-86
2021/09/26 10:06:35;;;;;;;4.03;3.72;;;;;;;;;;4684525;30;20204;-87
2021/09/26 10:09:23;;;;;;;4.55;4.25;;;;;;;;;;4685111;30;20294;-87
2021/09/26 10:11:55;;;;;;;3.17;2.97;;;;;;;;;;4684738;30;20206;-88
2021/09/26 10:14:26;;;;;;;3.83;3.53;;;;;;;;;;4689701;30;20221;-87
2021/09/26 10:16:56;;;;;;;4.00;3.63;;;;;;;;;;4718361;30;20214;-88
2021/09/26 10:19:25;;;;;;;3.88;3.58;;;;;;;;;;4718057;30;20229;-87
2021/09/26 10:21:59;;;;;;;4.18;3.88;;;;;;;;;;4718500;30;20237;-87
2021/09/26 10:24:34;;;;;;;3.30;3.10;;;;;;;;;;4719294;30;20209;-87
2021/09/26 10:27:06;;;;;;;3.65;3.38;;;;;;;;;;4719575;30;20342;-87
2021/09/26 10:29:36;;;;;;;3.80;3.47;;;;;;;;;;4719677;30;20698;-88
2021/09/26 10:32:06;;;;;;;6.57;4.90;;;;;;;;;;4719601;30;20218;-87
2021/09/26 10:34:36;;;;;;;3.85;3.55;;;;;;;;;;4719262;30;20218;-87
2021/09/26 10:37:07;;;;;;;3.47;3.20;;;;;;;;;;4719215;30;20213;-87
2021/09/26 10:39:37;;;;;;;3.45;3.25;;;;;;;;;;4719381;30;20269;-88
2021/09/26 10:42:08;;;;;;;3.35;3.15;;;;;;;;;;4719097;30;20237;-87
2021/09/26 10:44:40;;;;;;;3.13;2.83;;;;;;;;;;4719759;30;20277;-88
2021/09/26 10:47:18;;;;;;;2.60;2.40;;;;;;;;;;4701653;30;20736;-88
2021/09/26 10:49:50;;;;;;;3.40;3.08;;;;;;;;;;4701603;30;20607;-88
2021/09/26 10:52:31;;;;;;;3.50;3.30;;;;;;;;;;4702026;30;20198;-87
2021/09/26 10:55:32;;;;;;;2.88;2.67;;;;;;;;;;4701893;30;20198;-88
2021/09/26 10:58:19;;;;;;;3.17;2.97;;;;;;;;;;4686215;30;20335;-89
2021/09/26 11:01:01;;;;;;;2.75;2.55;;;;;;;;;;4684300;30;20191;-88
2021/09/26 11:03:39;;;;;;;4.63;3.13;;;;;;;;;;4684279;30;20227;-88
2021/09/26 11:06:28;;;;;;;2.97;2.67;;;;;;;;;;4685470;30;20211;-88
2021/09/26 11:08:58;;;;;;;2.63;2.42;;;;;;;;;;4684499;30;20242;-88
2021/09/26 11:11:39;;;;;;;2.95;2.45;;;;;;;;;;4694855;30;20199;-87
2021/09/26 11:14:09;;;;;;;3.25;3.05;;;;;;;;;;4701845;30;20277;-88
2021/09/26 11:16:53;;;;;;;2.70;2.50;;;;;;;;;;4701512;30;20198;-89
2021/09/26 11:19:21;;;;;;;2.63;2.42;;;;;;;;;;4699668;30;20227;-88
2021/09/26 11:22:02;;;;;;;3.15;2.95;;;;;;;;;;4701366;30;20284;-88
2021/09/26 11:24:58;;;;;;;3.60;3.30;;;;;;;;;;4701214;30;20305;-87
2021/09/26 11:27:42;;;;;;;3.35;3.05;;;;;;;;;;4683915;30;20207;-87
2021/09/26 11:30:29;;;;;;;3.40;3.10;;;;;;;;;;4681740;30;20302;-88
2021/09/26 11:33:07;;;;;;;3.58;3.28;;;;;;;;;;4683571;30;20201;-88
2021/09/26 11:35:39;;;;;;;3.35;2.50;;;;;;;;;;4686598;30;20252;-87
2021/09/26 11:38:15;;;;;;;2.90;2.70;;;;;;;;;;4701019;30;20391;-87
2021/09/26 11:41:07;;;;;;;3.20;2.90;;;;;;;;;;4700863;30;20215;-88
2021/09/26 11:43:45;;;;;;;4.32;3.08;;;;;;;;;;4700684;30;20321;-88
2021/09/26 11:46:24;;;;;;;2.58;2.38;;;;;;;;;;4693427;30;20231;-88
2021/09/26 11:48:57;;;;;;;2.20;2.00;;;;;;;;;;4683384;30;20223;-88
2021/09/26 11:51:26;;;;;;;2.50;2.30;;;;;;;;;;4683432;30;20195;-88
2021/09/26 11:53:53;;;;;;;2.72;2.53;;;;;;;;;;4683310;30;20221;-88
2021/09/26 11:56:26;;;;;;;2.50;2.30;;;;;;;;;;4686941;30;20206;-88
2021/09/26 11:58:58;;;;;;;3.10;2.90;;;;;;;;;;4700636;30;20238;-88
2021/09/26 12:01:38;;;;;;;2.92;2.72;;;;;;;;;;4696378;30;20667;-88
2021/09/26 12:04:18;;;;;;;3.22;2.88;;;;;;;;;;4683167;30;20692;-88
2021/09/26 12:06:49;;;;;;;4.80;3.55;;;;;;;;;;4683222;30;20198;-87
2021/09/26 12:09:42;;;;;;;2.67;2.50;;;;;;;;;;4683023;30;20246;-87
2021/09/26 12:12:13;;;;;;;2.50;2.40;;;;;;;;;;4682961;30;20800;-88
2021/09/26 12:14:45;;;;;;;3.35;3.05;;;;;;;;;;4693443;30;20573;-88
2021/09/26 12:17:21;;;;;;;4.18;2.35;;;;;;;;;;4699844;30;20295;-88
2021/09/26 12:19:49;;;;;;;2.65;2.45;;;;;;;;;;4700427;30;20203;-87
2021/09/26 12:22:20;;;;;;;2.28;2.03;;;;;;;;;;4700139;30;20206;-87
2021/09/26 12:24:54;;;;;;;3.00;2.70;;;;;;;;;;4700196;30;20652;-88
2021/09/26 12:27:29;;;;;;;2.83;2.63;;;;;;;;;;4700166;30;20199;-87
2021/09/26 12:30:01;;;;;;;3.90;2.88;;;;;;;;;;4700094;30;20209;-87
2021/09/26 12:32:34;;;;;;;2.55;2.25;;;;;;;;;;4700117;30;20609;-87
2021/09/26 12:35:06;;;;;;;2.45;2.25;;;;;;;;;;4700075;30;20199;-87
2021/09/26 12:37:35;;;;;;;6.80;3.67;;;;;;;;;;4699599;30;20230;-86
2021/09/26 12:40:12;;;;;;;3.53;3.22;;;;;;;;;;4699938;30;20202;-87
2021/09/26 12:42:49;;;;;;;3.00;2.80;;;;;;;;;;4699793;30;20224;-87
2021/09/26 12:45:22;;;;;;;3.13;2.45;;;;;;;;;;4699751;30;20194;-88
2021/09/26 12:47:51;;;;;;;2.45;2.33;;;;;;;;;;4699528;30;20333;-87
2021/09/26 12:50:20;;;;;;;2.78;2.53;;;;;;;;;;4699908;30;20199;-88
2021/09/26 12:52:48;;;;;;;2.50;2.30;;;;;;;;;;4699899;30;20288;-88
2021/09/26 12:55:22;;;;;;;3.53;3.03;;;;;;;;;;4699627;30;20191;-86
2021/09/26 12:57:50;;;;;;;4.47;2.67;;;;;;;;;;4682223;30;20303;-87
2021/09/26 13:00:22;;;;;;;2.97;2.22;;;;;;;;;;4682533;30;20206;-87
2021/09/26 13:02:53;;;;;;;2.88;2.20;;;;;;;;;;4682569;30;20187;-88
2021/09/26 13:05:33;;;;;;;2.88;2.63;;;;;;;;;;4682509;30;20210;-89
2021/09/26 13:08:04;;;;;;;2.30;2.20;;;;;;;;;;4684701;30;20226;-86
2021/09/26 13:10:34;;;;;;;2.40;2.20;;;;;;;;;;4699500;30;20202;-90
2021/09/26 13:13:13;;;;;;;3.00;2.75;;;;;;;;;;4682418;30;20207;-88
2021/09/26 13:15:44;;;;;;;2.53;2.33;;;;;;;;;;4681973;30;20206;-87
2021/09/26 13:18:30;;;;;;;2.70;2.50;;;;;;;;;;4688000;30;20234;-86
2021/09/26 13:21:34;;;;;;;2.10;1.98;;;;;;;;;;4698965;30;20610;-88
2021/09/26 13:24:08;;;;;;;1.90;1.80;;;;;;;;;;4681701;30;20238;-86
2021/09/26 13:26:39;;;;;;;1.88;1.77;;;;;;;;;;4681883;30;20210;-90
2021/09/26 13:29:14;;;;;;;2.95;2.72;;;;;;;;;;4694045;30;20237;-86
2021/09/26 13:31:49;;;;;;;2.47;2.28;;;;;;;;;;4699115;30;20256;-87
2021/09/26 13:34:29;;;;;;;2.30;2.10;;;;;;;;;;4699082;30;20190;-87
2021/09/26 13:37:00;;;;;;;5.57;2.38;;;;;;;;;;4698718;30;20198;-87
2021/09/26 13:39:39;;;;;;;2.15;1.95;;;;;;;;;;4686456;30;20253;-87
2021/09/26 13:42:11;;;;;;;2.40;2.20;;;;;;;;;;4681563;30;20192;-86
2021/09/26 13:44:39;;;;;;;3.95;2.65;;;;;;;;;;4681508;30;20262;-87
2021/09/26 13:47:07;;;;;;;2.53;2.15;;;;;;;;;;4681250;30;20250;-87
2021/09/26 13:49:34;;;;;;;5.45;2.50;;;;;;;;;;4681331;30;20246;-86
2021/09/26 13:52:02;;;;;;;2.25;2.05;;;;;;;;;;4694177;30;20897;-86
2021/09/26 13:54:31;;;;;;;2.20;1.90;;;;;;;;;;4698287;30;20210;-87
2021/09/26 13:56:59;;;;;;;2.40;2.20;;;;;;;;;;4698797;30;20214;-87
2021/09/26 13:59:28;;;;;;;3.95;2.65;;;;;;;;;;4683844;30;20231;-87
2021/09/26 14:01:56;;;;;;;4.35;3.13;;;;;;;;;;4681735;30;20203;-88
2021/09/26 14:04:23;;;;;;;2.28;2.10;;;;;;;;;;4681435;30;20250;-86
2021/09/26 14:06:51;;;;;;;2.78;2.25;;;;;;;;;;4681408;30;20226;-86
2021/09/26 14:09:18;;;;;;;2.35;2.10;;;;;;;;;;4680961;30;20238;-86
2021/09/26 14:11:48;;;;;;;2.38;2.17;;;;;;;;;;4681276;30;20222;-87
2021/09/26 14:14:15;;;;;;;1.90;1.80;;;;;;;;;;4681194;30;20237;-88
2021/09/26 14:16:45;;;;;;;2.03;1.90;;;;;;;;;;4697393;30;20668;-88
2021/09/26 14:19:14;;;;;;;2.33;2.13;;;;;;;;;;4698416;30;20237;-87
2021/09/26 14:21:42;;;;;;;2.35;2.15;;;;;;;;;;4697316;30;20272;-88
2021/09/26 14:24:11;;;;;;;2.67;2.10;;;;;;;;;;4681088;30;20249;-88
2021/09/26 14:26:40;;;;;;;3.22;2.08;;;;;;;;;;4681368;30;20204;-87
2021/09/26 14:29:07;;;;;;;2.50;2.30;;;;;;;;;;4693764;30;20238;-88
2021/09/26 14:31:37;;;;;;;2.45;1.73;;;;;;;;;;4698874;30;20580;-88
2021/09/26 14:34:06;;;;;;;1.95;1.85;;;;;;;;;;4698566;30;20214;-87
2021/09/26 14:36:33;;;;;;;4.05;2.80;;;;;;;;;;4698734;30;20233;-87
2021/09/26 14:39:02;;;;;;;1.98;1.88;;;;;;;;;;4698387;30;20234;-87
2021/09/26 14:41:30;;;;;;;2.47;2.28;;;;;;;;;;4700361;30;20257;-87
2021/09/26 14:44:02;;;;;;;2.03;1.92;;;;;;;;;;4701594;30;20238;-88
2021/09/26 14:46:30;;;;;;;3.35;2.20;;;;;;;;;;4685046;30;20238;-87
2021/09/26 14:48:58;;;;;;;2.97;2.78;;;;;;;;;;4695661;30;20238;-88
2021/09/26 14:51:27;;;;;;;2.35;1.88;;;;;;;;;;4701422;30;20583;-87
2021/09/26 14:53:55;;;;;;;2.55;2.33;;;;;;;;;;4701265;30;20222;-87
2021/09/26 14:56:25;;;;;;;3.00;2.08;;;;;;;;;;4701675;30;20290;-88
2021/09/26 14:58:54;;;;;;;2.25;2.10;;;;;;;;;;4701191;30;20234;-88
2021/09/26 15:01:22;;;;;;;1.90;1.80;;;;;;;;;;4701240;30;20284;-87
2021/09/26 15:03:50;;;;;;;2.55;2.35;;;;;;;;;;4701094;30;20210;-87